Time;durP1;ratioP1;P1;durP2;ratioP2;P2;SDS_P1;SDS_P2;PMS_P1;PMS_P2;Temp;Humidity;BMP_temperature;BMP_pressure;BME280_temperature;BME280_humidity;BME280_pressure;Samples;Min_cycle;Max_cycle;Signal;HPM_P1;HPM_P2
2022/01/14 00:01:46;;;;;;;32.23;18.03;;;-1.70;99.90;;;;;;5035725;28;20241;-88
2022/01/14 00:04:13;;;;;;;29.70;18.40;;;-1.70;99.90;;;;;;5052488;28;20288;-88
2022/01/14 00:06:39;;;;;;;32.23;18.50;;;-1.60;99.90;;;;;;5052659;28;20178;-88
2022/01/14 00:09:08;;;;;;;38.17;19.83;;;-1.70;99.90;;;;;;5052252;28;20239;-87
2022/01/14 00:11:44;;;;;;;31.73;18.10;;;-1.60;99.90;;;;;;5052040;28;20194;-88
2022/01/14 00:14:22;;;;;;;31.23;16.60;;;-1.70;99.90;;;;;;5052051;28;20178;-88
2022/01/14 00:16:49;;;;;;;28.17;16.63;;;-1.60;99.90;;;;;;5052198;28;20284;-88
2022/01/14 00:19:15;;;;;;;31.57;18.03;;;-1.70;99.90;;;;;;5035713;28;20281;-87
2022/01/14 00:21:43;;;;;;;31.10;17.20;;;-1.70;99.90;;;;;;5052508;28;20336;-87
2022/01/14 00:34:40;;;;;;;39.13;21.93;;;-1.80;99.90;;;;;;5051115;28;20557;-87
2022/01/14 00:37:06;;;;;;;39.30;21.53;;;-1.90;99.90;;;;;;5068619;28;20194;-87
2022/01/14 00:39:32;;;;;;;37.23;21.63;;;-1.90;99.90;;;;;;5067838;28;20193;-87
2022/01/14 00:41:58;;;;;;;44.47;22.63;;;-1.90;99.90;;;;;;5050784;28;20273;-87
2022/01/14 00:44:25;;;;;;;39.83;23.17;;;-1.90;99.90;;;;;;5068502;28;20210;-88
2022/01/14 00:46:51;;;;;;;44.07;22.97;;;-1.90;99.90;;;;;;5067968;28;20182;-87
2022/01/14 00:49:20;;;;;;;41.33;22.10;;;-2.00;99.90;;;;;;5068272;28;20273;-87
2022/01/14 00:51:46;;;;;;;41.73;23.43;;;-2.00;99.90;;;;;;5050971;28;20190;-87
2022/01/14 00:54:13;;;;;;;41.90;22.67;;;-2.00;99.90;;;;;;5034268;28;20224;-87
2022/01/14 00:59:14;;;;;;;36.33;22.03;;;-2.00;99.90;;;;;;5050997;28;20214;-87
2022/01/14 01:02:00;;;;;;;39.77;21.97;;;-2.10;99.90;;;;;;5051664;28;20217;-88
2022/01/14 01:04:37;;;;;;;36.57;21.10;;;-2.10;99.90;;;;;;5051345;28;20209;-87
2022/01/14 01:07:09;;;;;;;36.47;21.27;;;-2.20;99.90;;;;;;5051524;28;20181;-87
2022/01/14 01:09:37;;;;;;;41.57;23.10;;;-2.20;99.90;;;;;;5051760;28;20186;-87
2022/01/14 01:12:12;;;;;;;36.23;20.90;;;-2.20;99.90;;;;;;5051690;28;20202;-87
2022/01/14 01:14:49;;;;;;;36.20;20.87;;;-2.20;99.90;;;;;;5052031;28;20235;-87
2022/01/14 01:17:15;;;;;;;36.97;20.70;;;-2.20;99.90;;;;;;5052760;28;20187;-87
2022/01/14 01:19:42;;;;;;;32.87;20.87;;;-2.20;99.90;;;;;;5036296;28;20285;-87
2022/01/14 01:22:08;;;;;;;37.50;21.57;;;-2.20;99.90;;;;;;5035601;28;20439;-88
2022/01/14 01:24:46;;;;;;;36.63;21.23;;;-2.20;99.90;;;;;;5036070;28;20288;-88
2022/01/14 01:27:14;;;;;;;31.63;19.00;;;-2.20;99.90;;;;;;5050891;28;20245;-87
2022/01/14 01:32:07;;;;;;;33.37;19.67;;;-2.30;99.90;;;;;;5050832;28;20276;-88
2022/01/14 01:34:33;;;;;;;29.77;17.17;;;-2.30;99.90;;;;;;5034299;28;20181;-88
2022/01/14 01:37:01;;;;;;;29.93;18.07;;;-2.30;99.90;;;;;;5050959;28;20213;-87
2022/01/14 01:39:29;;;;;;;29.87;18.37;;;-2.30;99.90;;;;;;5034204;28;20193;-87
2022/01/14 01:42:04;;;;;;;30.87;18.20;;;-2.30;99.90;;;;;;5034012;28;20205;-87
2022/01/14 01:44:30;;;;;;;36.67;19.30;;;-2.20;99.90;;;;;;5050833;28;20220;-87
2022/01/14 01:46:57;;;;;;;30.87;17.23;;;-2.20;99.90;;;;;;5050747;28;20257;-88
2022/01/14 01:49:26;;;;;;;28.67;18.23;;;-2.20;99.90;;;;;;5050730;28;20189;-88
2022/01/14 01:51:53;;;;;;;37.30;20.10;;;-2.20;99.90;;;;;;5033942;28;20205;-88
2022/01/14 01:54:21;;;;;;;35.73;18.13;;;-2.20;99.90;;;;;;5033799;28;20224;-88
2022/01/14 01:56:49;;;;;;;29.67;17.30;;;-2.30;99.90;;;;;;5033887;28;20626;-88
2022/01/14 01:59:16;;;;;;;33.07;18.97;;;-2.30;99.90;;;;;;5050397;28;20185;-88
2022/01/14 02:01:42;;;;;;;35.73;19.20;;;-2.30;99.90;;;;;;5050621;28;20202;-88
2022/01/14 02:04:09;;;;;;;33.90;18.57;;;-2.40;99.90;;;;;;5035324;28;20212;-87
2022/01/14 02:06:37;;;;;;;34.63;18.10;;;-2.40;99.90;;;;;;5038471;28;20231;-87
2022/01/14 02:09:04;;;;;;;29.13;17.67;;;-2.30;99.90;;;;;;5037710;28;20177;-88
2022/01/14 02:11:30;;;;;;;31.00;17.87;;;-2.40;99.90;;;;;;5038202;28;20194;-87
2022/01/14 02:13:59;;;;;;;29.73;18.53;;;-2.30;99.90;;;;;;5038732;28;20221;-88
2022/01/14 02:22:14;;;;;;;38.30;18.80;;;-2.30;99.90;;;;;;5018126;28;20202;-88
2022/01/14 02:27:12;;;;;;;36.33;20.27;;;-2.40;99.90;;;;;;5051844;28;20187;-87
2022/01/14 02:29:38;;;;;;;34.87;20.13;;;-2.30;99.90;;;;;;5034317;28;20190;-87
2022/01/14 02:32:05;;;;;;;36.27;21.10;;;-2.40;99.90;;;;;;5034367;28;20202;-88
2022/01/14 02:34:31;;;;;;;39.93;21.30;;;-2.30;99.90;;;;;;5034374;28;20193;-87
2022/01/14 02:36:57;;;;;;;32.63;20.40;;;-2.30;99.90;;;;;;5034262;28;20232;-87
2022/01/14 02:39:23;;;;;;;36.57;19.67;;;-2.40;99.90;;;;;;5033965;28;20195;-88
2022/01/14 02:41:51;;;;;;;35.17;20.10;;;-2.30;99.90;;;;;;5034141;28;20205;-88
2022/01/14 02:44:24;;;;;;;35.27;21.50;;;-2.30;99.90;;;;;;5033574;28;20210;-88
2022/01/14 02:46:57;;;;;;;34.73;19.40;;;-2.20;99.90;;;;;;5033884;28;20222;-88
2022/01/14 02:49:28;;;;;;;36.10;19.57;;;-2.30;99.90;;;;;;5035210;28;20266;-88
2022/01/14 02:51:55;;;;;;;31.20;18.30;;;-2.30;99.90;;;;;;5054022;28;20272;-87
2022/01/14 02:54:24;;;;;;;35.80;19.47;;;-2.30;99.90;;;;;;5053809;28;20173;-88
2022/01/14 02:56:52;;;;;;;35.50;19.70;;;-2.30;99.90;;;;;;5053504;28;20185;-88
2022/01/14 02:59:20;;;;;;;50.60;25.83;;;-2.30;99.90;;;;;;5053604;28;20182;-88
2022/01/14 03:01:48;;;;;;;53.10;26.53;;;-2.30;99.90;;;;;;5053352;28;20202;-88
2022/01/14 03:04:17;;;;;;;47.90;25.70;;;-2.30;99.90;;;;;;5036652;28;20550;-87
2022/01/14 03:06:43;;;;;;;49.17;26.03;;;-2.30;99.90;;;;;;5037154;28;20182;-88
2022/01/14 03:09:10;;;;;;;46.07;23.97;;;-2.30;99.90;;;;;;5053299;28;20268;-88
2022/01/14 03:11:47;;;;;;;44.57;22.63;;;-2.30;99.90;;;;;;5036652;28;20202;-88
2022/01/14 03:14:24;;;;;;;39.90;21.20;;;-2.20;99.90;;;;;;5037023;28;20737;-87
2022/01/14 03:16:58;;;;;;;37.77;19.70;;;-2.30;99.90;;;;;;5053802;28;20200;-87
2022/01/14 03:19:25;;;;;;;37.03;18.47;;;-2.30;99.90;;;;;;5053241;28;20208;-88
2022/01/14 03:22:06;;;;;;;33.70;18.70;;;-2.30;99.90;;;;;;5053045;28;20198;-87
2022/01/14 03:27:03;;;;;;;34.03;19.47;;;-2.40;99.90;;;;;;5053032;28;20185;-88
2022/01/14 03:29:28;;;;;;;32.77;18.27;;;-2.40;99.90;;;;;;5053114;28;20178;-88
2022/01/14 03:31:54;;;;;;;29.13;17.50;;;-2.40;99.90;;;;;;5036935;28;20276;-88
2022/01/14 03:34:20;;;;;;;33.50;18.33;;;-2.50;99.90;;;;;;5036093;28;20181;-87
2022/01/14 03:36:46;;;;;;;37.50;19.67;;;-2.50;99.90;;;;;;5036142;28;20273;-88
2022/01/14 03:39:12;;;;;;;34.70;18.87;;;-2.50;99.90;;;;;;5052934;28;20280;-87
2022/01/14 03:41:38;;;;;;;33.33;17.30;;;-2.60;99.90;;;;;;5053118;28;20206;-87
2022/01/14 03:44:05;;;;;;;33.43;18.00;;;-2.60;99.90;;;;;;5036204;28;20329;-88
2022/01/14 03:46:31;;;;;;;28.63;15.50;;;-2.70;99.90;;;;;;5036044;28;20738;-87
2022/01/14 03:48:57;;;;;;;29.10;16.13;;;-2.70;99.90;;;;;;5051847;28;20228;-87
2022/01/14 03:51:24;;;;;;;26.37;15.20;;;-2.70;99.90;;;;;;5035779;28;20206;-88
2022/01/14 03:53:50;;;;;;;26.97;15.57;;;-2.70;99.90;;;;;;5035997;28;20186;-88
2022/01/14 03:56:17;;;;;;;27.23;16.23;;;-2.60;99.90;;;;;;5035657;28;20174;-88
2022/01/14 03:58:43;;;;;;;27.50;15.43;;;-2.60;99.90;;;;;;5035877;28;20185;-87
2022/01/14 04:01:10;;;;;;;28.23;15.63;;;-2.60;99.90;;;;;;5036014;28;20209;-88
2022/01/14 04:03:38;;;;;;;25.50;15.43;;;-2.60;99.90;;;;;;5035413;28;20186;-87
2022/01/14 04:06:04;;;;;;;27.40;15.77;;;-2.60;99.90;;;;;;5035555;28;20216;-88
2022/01/14 04:08:30;;;;;;;28.23;15.47;;;-2.50;99.90;;;;;;5035654;28;20269;-87
2022/01/14 04:10:58;;;;;;;29.40;16.30;;;-2.60;99.90;;;;;;5035484;28;20199;-88
2022/01/14 04:13:37;;;;;;;31.10;17.97;;;-2.60;99.90;;;;;;5036015;28;20197;-88
2022/01/14 04:16:04;;;;;;;32.03;18.07;;;-2.60;99.90;;;;;;5052132;28;20186;-88
2022/01/14 04:18:30;;;;;;;32.67;19.13;;;-2.60;99.90;;;;;;5035768;28;20741;-88
2022/01/14 04:20:56;;;;;;;32.90;20.67;;;-2.70;99.90;;;;;;5021063;28;20297;-88
2022/01/14 04:23:23;;;;;;;33.80;19.83;;;-2.70;99.90;;;;;;5032272;28;20571;-87
2022/01/14 04:25:51;;;;;;;29.87;18.17;;;-2.70;99.90;;;;;;5032028;28;20640;-88
2022/01/14 04:28:23;;;;;;;41.60;23.80;;;-2.70;99.90;;;;;;5031421;28;20324;-87
2022/01/14 04:30:56;;;;;;;31.60;19.23;;;-2.70;99.90;;;;;;5032129;28;20278;-87
2022/01/14 04:33:27;;;;;;;34.70;17.73;;;-2.70;99.90;;;;;;5047992;28;20201;-87
2022/01/14 04:35:57;;;;;;;36.57;18.43;;;-2.70;99.90;;;;;;5031832;28;20182;-88
2022/01/14 04:38:23;;;;;;;34.60;19.63;;;-2.70;99.90;;;;;;5029837;28;20179;-88
2022/01/14 04:40:49;;;;;;;33.33;17.87;;;-2.70;99.90;;;;;;5030084;28;20209;-87
2022/01/14 04:43:18;;;;;;;35.33;18.53;;;-2.60;99.90;;;;;;5046506;28;20268;-88
2022/01/14 04:46:02;;;;;;;30.53;18.17;;;-2.60;99.90;;;;;;5029813;28;20705;-88
2022/01/14 04:48:33;;;;;;;29.57;17.33;;;-2.60;99.90;;;;;;5029467;28;20225;-87
2022/01/14 04:51:00;;;;;;;34.40;19.67;;;-2.60;99.90;;;;;;5044245;28;20259;-88
2022/01/14 04:53:26;;;;;;;32.10;18.13;;;-2.60;99.90;;;;;;5050095;28;20224;-88
2022/01/14 04:55:54;;;;;;;32.80;17.97;;;-2.60;99.90;;;;;;5050661;28;20178;-88
2022/01/14 04:58:20;;;;;;;37.23;21.10;;;-2.60;99.90;;;;;;5050417;28;20265;-87
2022/01/14 05:00:46;;;;;;;32.23;20.03;;;-2.60;99.90;;;;;;5050508;28;20296;-89
2022/01/14 05:03:12;;;;;;;32.03;19.83;;;-2.60;99.90;;;;;;5033936;28;20216;-87
2022/01/14 05:05:44;;;;;;;30.37;18.73;;;-2.60;99.90;;;;;;5034077;28;20228;-87
2022/01/14 05:08:24;;;;;;;29.90;16.47;;;-2.60;99.90;;;;;;5050503;28;20236;-87
2022/01/14 05:13:24;;;;;;;31.77;17.00;;;-2.60;99.90;;;;;;5052378;28;20182;-88
2022/01/14 05:15:50;;;;;;;31.27;16.50;;;-2.60;99.90;;;;;;5035704;28;20177;-87
2022/01/14 05:18:16;;;;;;;30.60;16.17;;;-2.70;99.90;;;;;;5034768;28;20174;-87
2022/01/14 05:20:42;;;;;;;28.53;16.80;;;-2.70;99.90;;;;;;5034006;28;20233;-87
2022/01/14 05:23:08;;;;;;;27.77;16.93;;;-2.60;99.90;;;;;;5035029;28;20193;-87
2022/01/14 05:25:34;;;;;;;26.43;15.57;;;-2.70;99.90;;;;;;5052643;28;20264;-88
2022/01/14 05:28:00;;;;;;;26.60;15.57;;;-2.70;99.90;;;;;;5035699;28;20174;-88
2022/01/14 05:30:27;;;;;;;29.80;15.77;;;-2.70;99.90;;;;;;5036017;28;20208;-88
2022/01/14 05:32:54;;;;;;;29.87;15.73;;;-2.70;99.90;;;;;;5035672;28;20201;-87
2022/01/14 05:35:25;;;;;;;23.50;14.60;;;-2.70;99.90;;;;;;5035769;28;20188;-88
2022/01/14 05:37:51;;;;;;;26.20;15.30;;;-2.70;99.90;;;;;;5052029;28;20213;-87
2022/01/14 05:40:19;;;;;;;30.10;15.63;;;-2.80;99.90;;;;;;5035734;28;20205;-88
2022/01/14 05:42:45;;;;;;;29.73;16.20;;;-2.70;99.90;;;;;;5052567;28;20221;-87
2022/01/14 05:45:14;;;;;;;30.40;18.30;;;-2.70;99.90;;;;;;5035516;28;20618;-88
2022/01/14 05:47:41;;;;;;;29.03;16.73;;;-2.60;99.90;;;;;;5035314;28;20288;-87
2022/01/14 05:50:12;;;;;;;33.17;17.90;;;-2.70;99.90;;;;;;5044491;28;20186;-88
2022/01/14 05:52:39;;;;;;;30.07;16.40;;;-2.70;99.90;;;;;;5029905;28;20348;-87
2022/01/14 05:55:07;;;;;;;34.27;18.60;;;-2.70;99.90;;;;;;5030240;28;20198;-87
2022/01/14 05:57:34;;;;;;;32.73;18.80;;;-2.70;99.90;;;;;;5030149;28;20182;-87
2022/01/14 06:00:11;;;;;;;36.03;18.87;;;-2.70;99.90;;;;;;5033666;28;20193;-87
2022/01/14 06:02:47;;;;;;;33.83;18.70;;;-2.80;99.90;;;;;;5046915;28;20182;-87
2022/01/14 06:08:41;;;;;;;33.90;18.63;;;-2.90;99.90;;;;;;5051372;28;20182;-87
2022/01/14 06:11:20;;;;;;;32.53;18.50;;;-2.90;99.90;;;;;;5034906;28;20193;-88
2022/01/14 06:13:47;;;;;;;38.10;19.63;;;-3.00;99.90;;;;;;5035945;28;20178;-89
2022/01/14 06:16:13;;;;;;;37.73;20.07;;;-3.10;99.90;;;;;;5035260;28;20276;-87
2022/01/14 06:18:40;;;;;;;39.57;20.43;;;-3.10;99.90;;;;;;5034431;28;20182;-87
2022/01/14 06:21:06;;;;;;;38.60;20.77;;;-3.20;99.90;;;;;;5035032;28;20198;-87
2022/01/14 06:23:32;;;;;;;40.53;21.17;;;-3.10;99.90;;;;;;5034703;28;20700;-87
2022/01/14 06:25:58;;;;;;;39.53;21.27;;;-3.10;99.90;;;;;;5034374;28;20209;-87
2022/01/14 06:28:24;;;;;;;39.00;20.73;;;-3.20;99.90;;;;;;5046672;28;20159;-86
2022/01/14 06:30:50;;;;;;;37.70;20.97;;;-3.10;99.90;;;;;;5058779;28;20221;-86
2022/01/14 06:33:17;;;;;;;35.07;19.13;;;-3.10;99.90;;;;;;5041751;28;20194;-87
2022/01/14 06:35:42;;;;;;;32.03;18.70;;;-3.10;99.90;;;;;;5034503;28;20170;-87
2022/01/14 06:38:10;;;;;;;28.20;16.77;;;-3.00;99.90;;;;;;5034494;28;20174;-86
2022/01/14 06:40:36;;;;;;;28.47;16.00;;;-3.00;99.90;;;;;;5050956;28;20801;-87
2022/01/14 06:43:02;;;;;;;25.17;14.23;;;-3.00;99.90;;;;;;5034716;28;20225;-87
2022/01/14 06:45:28;;;;;;;26.03;15.03;;;-3.00;99.90;;;;;;5034690;28;20237;-87
2022/01/14 06:47:54;;;;;;;28.10;15.53;;;-3.00;99.90;;;;;;5034379;28;20193;-88
2022/01/14 06:50:21;;;;;;;27.87;15.97;;;-2.90;99.90;;;;;;5036421;28;20185;-87
2022/01/14 06:52:47;;;;;;;28.40;16.33;;;-2.90;99.90;;;;;;5038098;28;20629;-87
2022/01/14 06:55:13;;;;;;;29.77;16.87;;;-2.90;99.90;;;;;;5038031;28;20204;-87
2022/01/14 06:57:39;;;;;;;28.90;16.80;;;-2.90;99.90;;;;;;5054681;28;20264;-87
2022/01/14 07:00:09;;;;;;;28.83;16.53;;;-2.90;99.90;;;;;;5037961;28;20194;-87
2022/01/14 07:02:35;;;;;;;30.03;16.63;;;-2.90;99.90;;;;;;5021890;28;20205;-87
2022/01/14 07:05:02;;;;;;;25.33;15.27;;;-2.90;99.90;;;;;;5055407;28;20213;-87
2022/01/14 07:07:28;;;;;;;26.73;16.17;;;-2.80;99.90;;;;;;5038106;28;20178;-86
2022/01/14 07:09:57;;;;;;;29.03;16.73;;;-2.80;99.90;;;;;;5037569;28;20182;-87
2022/01/14 07:12:27;;;;;;;28.50;15.07;;;-2.90;99.90;;;;;;5054672;28;20189;-87
2022/01/14 07:14:54;;;;;;;27.47;16.27;;;-2.90;99.90;;;;;;5037657;28;20206;-87
2022/01/14 07:17:21;;;;;;;23.73;15.33;;;-2.90;99.90;;;;;;5054323;28;20174;-87
2022/01/14 07:19:49;;;;;;;25.07;16.13;;;-2.80;99.90;;;;;;5037399;28;20182;-87
2022/01/14 07:22:15;;;;;;;26.47;16.07;;;-2.90;99.90;;;;;;5054360;28;20193;-87
2022/01/14 07:24:41;;;;;;;31.63;16.50;;;-2.90;99.90;;;;;;5037202;28;20236;-87
2022/01/14 07:27:07;;;;;;;27.90;16.30;;;-2.80;99.90;;;;;;5053979;28;20177;-87
2022/01/14 07:29:33;;;;;;;27.60;16.47;;;-2.80;99.90;;;;;;5037179;28;20273;-87
2022/01/14 07:31:58;;;;;;;29.37;16.83;;;-2.80;99.90;;;;;;5037577;28;20213;-87
2022/01/14 07:34:25;;;;;;;25.97;15.80;;;-2.80;99.90;;;;;;5037330;28;20185;-86
2022/01/14 07:36:52;;;;;;;25.97;15.20;;;-2.80;99.90;;;;;;5053630;28;20211;-87
2022/01/14 07:39:19;;;;;;;26.50;15.87;;;-2.70;99.90;;;;;;5037025;28;20225;-87
2022/01/14 07:41:48;;;;;;;24.43;14.77;;;-2.70;99.90;;;;;;5053937;28;20270;-87
2022/01/14 07:44:15;;;;;;;22.50;14.67;;;-2.60;99.90;;;;;;5037312;28;20241;-87
2022/01/14 07:46:41;;;;;;;24.77;14.73;;;-2.60;99.90;;;;;;5053735;28;20199;-87
2022/01/14 07:49:07;;;;;;;25.40;14.53;;;-2.60;99.90;;;;;;5036750;28;20178;-86
2022/01/14 07:51:33;;;;;;;26.23;15.33;;;-2.50;99.90;;;;;;5036782;28;20194;-87
2022/01/14 07:54:04;;;;;;;26.00;14.47;;;-2.50;99.90;;;;;;5053547;28;20658;-87
2022/01/14 07:56:34;;;;;;;24.03;14.30;;;-2.40;99.90;;;;;;5053701;28;20179;-87
2022/01/14 07:59:00;;;;;;;26.17;14.67;;;-2.30;99.90;;;;;;5036622;28;20186;-87
2022/01/14 08:01:27;;;;;;;25.37;14.97;;;-2.30;99.90;;;;;;5052173;28;20190;-87
2022/01/14 08:03:53;;;;;;;26.03;15.00;;;-2.20;99.90;;;;;;5053210;28;20174;-87
2022/01/14 08:06:22;;;;;;;25.90;15.07;;;-2.20;99.90;;;;;;5053399;28;20182;-86
2022/01/14 08:08:48;;;;;;;27.60;15.80;;;-2.10;99.90;;;;;;5053145;28;20269;-87
2022/01/14 08:11:14;;;;;;;29.23;17.57;;;-2.10;99.90;;;;;;5036520;28;20204;-87
2022/01/14 08:13:40;;;;;;;27.80;16.50;;;-2.00;99.90;;;;;;5036488;28;20185;-87
2022/01/14 08:16:05;;;;;;;26.10;15.83;;;-2.00;99.90;;;;;;5036548;28;20194;-87
2022/01/14 08:18:31;;;;;;;25.07;15.07;;;-2.00;99.90;;;;;;5036131;28;20249;-86
2022/01/14 08:20:59;;;;;;;25.03;14.20;;;-1.90;99.90;;;;;;5036361;28;20206;-87
2022/01/14 08:23:25;;;;;;;21.47;13.10;;;-1.90;99.90;;;;;;5052895;28;20194;-87
2022/01/14 08:25:53;;;;;;;23.47;13.47;;;-1.90;99.90;;;;;;5052750;28;20208;-86
2022/01/14 08:28:22;;;;;;;25.77;14.60;;;-1.80;99.90;;;;;;5052673;28;20646;-87
2022/01/14 08:30:48;;;;;;;29.33;15.47;;;-1.70;99.90;;;;;;5036451;28;20281;-87
2022/01/14 08:33:14;;;;;;;26.93;15.07;;;-1.70;99.90;;;;;;5045668;28;20290;-87
2022/01/14 08:35:40;;;;;;;28.87;16.80;;;-1.60;99.90;;;;;;5032939;28;20183;-87
2022/01/14 08:38:06;;;;;;;28.87;16.70;;;-1.50;99.90;;;;;;5032640;28;20237;-87
2022/01/14 08:40:33;;;;;;;34.17;18.07;;;-1.50;99.90;;;;;;5032801;28;20179;-86
2022/01/14 08:43:00;;;;;;;35.10;19.13;;;-1.30;99.90;;;;;;5033125;28;20183;-86
2022/01/14 08:45:25;;;;;;;31.97;19.60;;;-1.20;99.90;;;;;;5016366;28;20211;-86
2022/01/14 08:47:54;;;;;;;32.17;19.40;;;-1.10;99.90;;;;;;5032939;28;20182;-87
2022/01/14 08:50:26;;;;;;;30.83;18.87;;;-1.00;99.90;;;;;;5053681;28;20189;-86
2022/01/14 08:52:52;;;;;;;31.40;18.63;;;-0.90;99.90;;;;;;5036899;28;20211;-87
2022/01/14 08:59:23;;;;;;;29.73;17.80;;;-0.60;99.90;;;;;;5053398;28;20157;-87
2022/01/14 09:01:49;;;;;;;26.43;16.93;;;-0.50;99.90;;;;;;5035573;28;20209;-87
2022/01/14 09:04:16;;;;;;;24.33;16.40;;;-0.40;99.90;;;;;;5035465;28;20307;-87
2022/01/14 09:06:42;;;;;;;29.33;17.63;;;-0.40;99.90;;;;;;5035637;28;20269;-87
2022/01/14 09:09:08;;;;;;;27.73;17.13;;;-0.30;99.90;;;;;;5035405;28;20258;-87
2022/01/14 09:11:34;;;;;;;22.33;13.30;;;-0.20;99.90;;;;;;5035145;28;20275;-87
2022/01/14 09:14:00;;;;;;;21.50;13.40;;;-0.20;99.90;;;;;;5035194;28;20182;-87
2022/01/14 09:16:26;;;;;;;23.73;14.20;;;-0.20;99.90;;;;;;5035637;28;20179;-87
2022/01/14 09:18:52;;;;;;;23.00;13.37;;;-0.10;99.90;;;;;;5035156;28;20190;-87
2022/01/14 09:21:19;;;;;;;23.53;14.07;;;0.00;99.90;;;;;;5035305;28;20207;-87
2022/01/14 09:24:20;;;;;;;20.47;13.37;;;0.10;99.90;;;;;;5035333;28;20198;-87
2022/01/14 09:26:40;;;;;;;24.03;13.13;;;0.10;99.90;;;;;;5049867;28;20202;-87
2022/01/14 09:29:07;;;;;;;20.13;12.57;;;0.10;99.90;;;;;;5035276;28;20247;-87
2022/01/14 09:31:34;;;;;;;19.10;13.03;;;0.20;99.90;;;;;;5035317;28;20295;-87
2022/01/14 09:34:00;;;;;;;19.67;13.27;;;0.20;99.90;;;;;;5021618;28;20206;-87
2022/01/14 09:36:26;;;;;;;21.40;12.53;;;0.40;99.90;;;;;;5031596;28;20214;-87
2022/01/14 09:38:52;;;;;;;21.43;13.50;;;0.50;99.90;;;;;;5031819;28;20230;-87
2022/01/14 09:41:18;;;;;;;19.47;12.47;;;0.60;99.90;;;;;;5031831;28;20682;-87
2022/01/14 09:43:45;;;;;;;22.93;14.23;;;0.60;99.90;;;;;;5031588;28;20181;-87
2022/01/14 09:46:11;;;;;;;22.80;15.17;;;0.70;99.90;;;;;;5031598;28;20203;-87
2022/01/14 09:48:38;;;;;;;21.93;15.00;;;0.80;99.90;;;;;;5048014;28;20177;-87
2022/01/14 09:51:05;;;;;;;23.80;14.73;;;0.90;99.90;;;;;;5031506;28;20601;-87
2022/01/14 09:53:32;;;;;;;21.27;14.10;;;1.00;99.90;;;;;;5031368;28;20188;-87
2022/01/14 09:55:59;;;;;;;21.90;14.13;;;1.20;99.90;;;;;;5031381;28;20177;-87
2022/01/14 09:58:35;;;;;;;24.60;14.53;;;1.20;99.90;;;;;;5031131;28;20263;-87
2022/01/14 10:01:13;;;;;;;25.83;15.63;;;1.30;99.90;;;;;;5031411;28;20209;-87
2022/01/14 10:03:51;;;;;;;23.87;14.30;;;1.30;99.90;;;;;;5042078;28;20185;-87
2022/01/14 10:06:36;;;;;;;22.07;14.33;;;1.40;99.90;;;;;;5034960;28;20204;-88
2022/01/14 10:09:47;;;;;;;24.13;15.30;;;1.50;99.90;;;;;;5051089;28;20181;-87
2022/01/14 10:12:17;;;;;;;28.07;16.23;;;1.60;99.90;;;;;;5051137;28;20197;-87
2022/01/14 10:15:00;;;;;;;26.33;16.50;;;1.60;99.90;;;;;;5051280;28;20184;-87
2022/01/14 10:17:39;;;;;;;23.80;15.60;;;1.70;99.90;;;;;;5051102;28;20177;-87
2022/01/14 10:20:08;;;;;;;23.03;15.00;;;1.80;99.90;;;;;;5034611;28;20177;-87
2022/01/14 10:22:38;;;;;;;25.23;15.20;;;1.90;99.90;;;;;;5051300;28;20209;-87
2022/01/14 10:25:08;;;;;;;24.80;15.53;;;2.00;99.90;;;;;;5035831;28;20209;-87
2022/01/14 10:27:43;;;;;;;23.50;14.53;;;2.00;99.90;;;;;;5038494;28;20646;-87
2022/01/14 10:30:19;;;;;;;30.27;20.07;;;2.10;99.90;;;;;;5038745;28;20165;-87
2022/01/14 10:35:59;;;;;;;21.67;14.73;;;2.20;99.90;;;;;;5055292;28;20181;-87
2022/01/14 10:38:36;;;;;;;20.93;13.57;;;2.40;99.90;;;;;;5054679;28;20193;-87
2022/01/14 10:41:07;;;;;;;22.43;15.43;;;2.40;99.90;;;;;;5055149;28;20209;-87
2022/01/14 10:43:35;;;;;;;19.10;12.83;;;2.50;99.90;;;;;;5038128;28;20193;-87
2022/01/14 10:46:06;;;;;;;16.80;11.90;;;2.50;99.90;;;;;;5055202;28;20198;-87
2022/01/14 10:48:38;;;;;;;20.60;13.03;;;2.60;99.90;;;;;;5038900;28;20170;-87
2022/01/14 10:51:10;;;;;;;18.57;12.70;;;2.70;99.90;;;;;;5055179;28;20202;-87
2022/01/14 10:53:41;;;;;;;18.10;12.13;;;2.80;99.90;;;;;;5055252;28;20170;-87
2022/01/14 10:56:09;;;;;;;18.93;12.83;;;2.80;99.90;;;;;;5038834;28;20174;-87
2022/01/14 10:58:44;;;;;;;17.33;11.87;;;2.90;99.90;;;;;;5038399;28;20537;-87
2022/01/14 11:01:21;;;;;;;17.27;11.97;;;3.00;99.90;;;;;;5032583;28;20275;-87
2022/01/14 11:03:56;;;;;;;20.63;13.47;;;3.10;99.90;;;;;;5035079;28;20288;-87
2022/01/14 11:06:25;;;;;;;18.90;12.10;;;3.20;99.90;;;;;;5035216;28;20198;-86
2022/01/14 11:08:56;;;;;;;17.40;11.03;;;3.20;99.90;;;;;;5035013;28;20174;-87
2022/01/14 11:11:23;;;;;;;16.87;10.97;;;3.30;99.90;;;;;;5046110;28;20243;-87
2022/01/14 11:13:49;;;;;;;16.17;10.67;;;3.40;99.90;;;;;;5039876;28;20174;-87
2022/01/14 11:16:18;;;;;;;16.17;10.97;;;3.50;99.90;;;;;;5038542;28;20185;-87
2022/01/14 11:18:46;;;;;;;16.60;11.17;;;3.60;99.90;;;;;;5037132;28;20209;-87
2022/01/14 11:23:57;;;;;;;14.27;10.27;;;3.80;99.90;;;;;;5055188;28;20220;-87
2022/01/14 11:26:30;;;;;;;17.77;12.07;;;3.90;99.90;;;;;;5017731;28;20206;-87
2022/01/14 11:29:02;;;;;;;16.23;11.93;;;4.00;99.90;;;;;;5034633;28;20171;-87
2022/01/14 11:31:35;;;;;;;17.87;12.03;;;4.10;99.90;;;;;;5034667;28;20209;-87
2022/01/14 11:34:03;;;;;;;16.63;10.97;;;4.20;99.90;;;;;;5034976;28;20262;-87
2022/01/14 11:36:51;;;;;;;16.73;11.53;;;4.20;99.90;;;;;;5037762;28;20171;-87
2022/01/14 11:39:25;;;;;;;16.57;11.10;;;4.30;99.90;;;;;;5033753;28;20194;-87
2022/01/14 11:42:00;;;;;;;17.03;10.07;;;4.40;99.90;;;;;;5033899;28;20190;-87
2022/01/14 11:44:57;;;;;;;13.97;10.13;;;4.50;99.90;;;;;;5033733;28;20666;-87
2022/01/14 11:47:26;;;;;;;15.13;10.00;;;4.50;99.90;;;;;;5017224;28;20201;-87
2022/01/14 11:49:54;;;;;;;14.87;10.20;;;4.60;99.90;;;;;;5017191;28;20187;-87
2022/01/14 11:52:34;;;;;;;12.83;9.33;;;4.60;99.90;;;;;;5033638;28;20256;-87
2022/01/14 11:55:00;;;;;;;14.67;10.80;;;4.70;99.90;;;;;;5017290;28;20211;-87
2022/01/14 11:58:02;;;;;;;14.63;9.87;;;4.70;99.90;;;;;;5033597;28;20206;-88
2022/01/14 12:00:33;;;;;;;14.97;9.70;;;4.80;99.90;;;;;;4976819;28;20677;-87
2022/01/14 12:03:00;;;;;;;13.90;9.87;;;4.90;99.90;;;;;;5053554;28;20187;-87
2022/01/14 12:05:28;;;;;;;12.87;9.10;;;5.00;99.90;;;;;;5017105;28;20221;-87
2022/01/14 12:08:07;;;;;;;12.93;8.20;;;5.10;99.90;;;;;;5016782;28;20270;-87
2022/01/14 12:10:41;;;;;;;13.43;9.63;;;5.20;99.90;;;;;;5018813;28;20180;-87
2022/01/14 12:13:23;;;;;;;13.90;8.90;;;5.30;99.90;;;;;;5034288;28;20174;-87
2022/01/14 12:15:57;;;;;;;14.73;9.07;;;5.40;99.90;;;;;;5033512;28;20225;-87
2022/01/14 12:18:57;;;;;;;12.07;9.13;;;5.50;99.90;;;;;;5042120;28;20192;-87
2022/01/14 12:21:50;;;;;;;12.97;8.27;;;5.60;99.90;;;;;;5017105;28;20204;-87
2022/01/14 12:24:19;;;;;;;10.37;7.80;;;5.80;99.90;;;;;;5034645;28;20201;-87
2022/01/14 12:26:54;;;;;;;12.07;8.63;;;5.90;99.90;;;;;;5022899;28;20200;-87
2022/01/14 12:29:32;;;;;;;12.00;8.33;;;5.90;99.90;;;;;;5035952;28;20220;-87
2022/01/14 12:32:05;;;;;;;13.63;8.40;;;6.10;99.90;;;;;;5036576;28;20204;-87
2022/01/14 12:34:36;;;;;;;10.70;7.80;;;6.10;99.90;;;;;;5036615;28;20201;-87
2022/01/14 12:37:04;;;;;;;11.83;8.13;;;6.20;99.90;;;;;;5037019;28;20222;-87
2022/01/14 12:39:32;;;;;;;13.37;8.53;;;6.30;99.90;;;;;;5036621;28;20196;-87
2022/01/14 12:42:04;;;;;;;11.13;7.60;;;6.50;99.90;;;;;;5036393;28;20213;-87
2022/01/14 12:44:30;;;;;;;10.63;7.83;;;6.50;99.90;;;;;;5036415;28;20205;-87
2022/01/14 12:47:01;;;;;;;11.13;8.37;;;6.60;99.90;;;;;;5036227;28;20191;-87
2022/01/14 12:49:33;;;;;;;11.40;8.03;;;6.70;99.90;;;;;;5035919;28;20185;-87
2022/01/14 12:52:09;;;;;;;12.33;7.90;;;6.80;99.90;;;;;;5052451;28;20241;-87
2022/01/14 12:54:38;;;;;;;11.83;8.33;;;6.90;99.90;;;;;;5051820;28;20184;-83
2022/01/14 12:57:05;;;;;;;11.13;8.27;;;7.00;99.90;;;;;;5035923;28;20285;-88
2022/01/14 12:59:37;;;;;;;9.77;7.70;;;7.00;99.90;;;;;;5037313;28;20189;-89
2022/01/14 13:02:05;;;;;;;12.60;8.43;;;7.10;99.90;;;;;;5035896;28;20198;-90
2022/01/14 13:04:31;;;;;;;12.87;7.70;;;7.20;99.90;;;;;;5035424;28;20209;-89
2022/01/14 13:07:04;;;;;;;8.33;6.57;;;7.30;99.90;;;;;;5035763;28;20184;-89
2022/01/14 13:09:33;;;;;;;9.07;6.43;;;7.30;99.90;;;;;;5036366;28;20178;-89
2022/01/14 13:12:02;;;;;;;10.57;7.40;;;7.40;99.90;;;;;;5036386;28;20193;-83
2022/01/14 13:14:35;;;;;;;10.87;8.00;;;7.40;99.90;;;;;;5036747;28;20182;-84
2022/01/14 13:17:04;;;;;;;10.27;7.17;;;7.60;99.90;;;;;;5036425;28;20215;-89
2022/01/14 13:19:32;;;;;;;10.80;7.80;;;7.70;99.90;;;;;;5035165;28;20182;-91
2022/01/14 13:22:00;;;;;;;10.57;8.13;;;7.60;99.90;;;;;;5052457;28;20702;-89
2022/01/14 13:24:29;;;;;;;13.60;8.47;;;7.80;99.90;;;;;;5068674;28;20229;-88